createdAt,value
2023-03-15T00:00:36.623Z,99559.23
2023-03-15T00:03:25.796Z,99560.33
2023-03-15T00:05:58.535Z,99569.79
2023-03-15T00:08:33.334Z,99567.89
2023-03-15T00:11:06.364Z,99578.36
2023-03-15T00:13:38.928Z,99578.79
2023-03-15T00:16:12.085Z,99584.63
2023-03-15T00:18:45.275Z,99595.88
2023-03-15T00:21:18.045Z,99600.31
2023-03-15T00:23:50.795Z,99584.41
2023-03-15T00:26:23.388Z,99602.14
2023-03-15T00:28:56.142Z,99609.27
2023-03-15T00:31:29.070Z,99613.00
2023-03-15T00:34:02.081Z,99611.89
2023-03-15T00:36:38.030Z,99609.16
2023-03-15T00:39:10.844Z,99629.65
2023-03-15T00:41:46.020Z,99628.35
2023-03-15T00:44:18.922Z,99636.20
2023-03-15T00:46:51.429Z,99639.30
2023-03-15T00:49:23.929Z,99632.02
2023-03-15T00:51:58.740Z,99635.14
2023-03-15T00:54:33.547Z,99638.65
2023-03-15T00:57:06.413Z,99647.46
2023-03-15T00:59:39.410Z,99650.75
2023-03-15T01:02:14.137Z,99649.85
2023-03-15T01:04:46.886Z,99659.11
2023-03-15T01:07:19.681Z,99661.63
2023-03-15T01:09:53.828Z,99664.48
2023-03-15T01:12:26.366Z,99673.56
2023-03-15T01:14:59.689Z,99674.23
2023-03-15T01:17:32.315Z,99682.23
2023-03-15T01:20:10.214Z,99688.30
2023-03-15T01:22:43.116Z,99687.95
2023-03-15T01:25:16.028Z,99691.20
2023-03-15T01:27:50.100Z,99691.51
2023-03-15T01:30:22.605Z,99698.09
2023-03-15T01:32:55.742Z,99713.27
2023-03-15T01:35:29.333Z,99715.92
2023-03-15T01:38:01.765Z,99721.01
2023-03-15T01:40:36.513Z,99719.97
2023-03-15T01:43:18.272Z,99729.80
2023-03-15T01:46:08.138Z,99738.10
2023-03-15T01:48:51.163Z,99742.52
2023-03-15T01:51:35.766Z,99746.60
2023-03-15T01:54:14.380Z,99748.52
2023-03-15T01:56:53.427Z,99755.08
2023-03-15T01:59:31.816Z,99759.20
2023-03-15T02:02:06.461Z,99760.23
2023-03-15T02:04:46.488Z,99770.89
2023-03-15T02:07:23.132Z,99775.79
2023-03-15T02:10:02.505Z,99777.17
2023-03-15T02:12:40.026Z,99787.07
2023-03-15T02:15:15.009Z,99786.97
2023-03-15T02:17:52.150Z,99787.92
2023-03-15T02:20:35.703Z,99793.35
2023-03-15T02:23:13.717Z,99803.29
2023-03-15T02:25:56.041Z,99809.66
2023-03-15T02:28:29.203Z,99811.98
2023-03-15T02:31:01.910Z,99802.23
2023-03-15T02:33:40.414Z,99817.23
2023-03-15T02:36:17.008Z,99817.31
2023-03-15T02:38:51.417Z,99822.12
2023-03-15T02:41:27.818Z,99821.33
2023-03-15T02:44:05.030Z,99826.57
2023-03-15T02:46:39.070Z,99827.89
2023-03-15T02:49:13.015Z,99832.33
2023-03-15T02:51:45.602Z,99831.12
2023-03-15T02:54:18.154Z,99837.58
2023-03-15T02:56:51.507Z,99838.40
2023-03-15T02:59:24.093Z,99846.05
2023-03-15T03:01:57.000Z,99847.56
2023-03-15T03:04:29.494Z,99852.64
2023-03-15T03:07:02.318Z,99854.60
2023-03-15T03:09:40.583Z,99857.88
2023-03-15T03:12:15.422Z,99855.79
2023-03-15T03:14:48.489Z,99859.59
2023-03-15T03:17:23.155Z,99859.08
2023-03-15T03:19:55.600Z,99863.48
2023-03-15T03:22:32.362Z,99870.48
2023-03-15T03:25:07.044Z,99865.42
2023-03-15T03:27:39.649Z,99886.33
2023-03-15T03:30:16.395Z,99874.90
2023-03-15T03:32:53.968Z,99891.29
2023-03-15T03:35:26.826Z,99895.35
2023-03-15T03:38:00.896Z,99896.31
2023-03-15T03:40:39.649Z,99898.52
2023-03-15T03:43:12.444Z,99905.80
2023-03-15T03:45:45.339Z,99911.35
2023-03-15T03:48:17.811Z,99923.91
2023-03-15T03:50:50.785Z,99926.02
2023-03-15T03:53:23.987Z,99941.77
2023-03-15T03:55:56.470Z,99944.06
2023-03-15T03:58:29.765Z,99950.58
2023-03-15T04:01:07.415Z,99958.79
2023-03-15T04:03:40.301Z,99958.35
2023-03-15T04:06:17.366Z,99957.31
2023-03-15T04:08:52.252Z,99963.40
2023-03-15T04:11:36.460Z,99965.59
2023-03-15T04:14:12.298Z,99973.73
2023-03-15T04:16:45.787Z,99978.19
2023-03-15T04:19:21.871Z,99985.73
2023-03-15T04:21:55.323Z,99991.27
2023-03-15T04:24:56.940Z,99980.33
2023-03-15T04:27:59.038Z,99992.27
2023-03-15T04:30:50.961Z,99985.81
2023-03-15T04:33:46.510Z,99994.31
2023-03-15T04:36:43.692Z,100000.47
2023-03-15T04:39:22.237Z,100003.11
2023-03-15T04:42:07.920Z,100007.40
2023-03-15T04:45:00.650Z,100013.31
2023-03-15T04:48:03.076Z,100017.39
2023-03-15T04:50:57.864Z,100017.95
2023-03-15T04:53:44.954Z,100019.06
2023-03-15T04:56:38.168Z,100020.27
2023-03-15T04:59:28.294Z,100016.16
2023-03-15T05:02:29.985Z,100030.67
2023-03-15T05:05:27.138Z,100037.19
2023-03-15T05:08:13.557Z,100038.02
2023-03-15T05:11:09.975Z,100047.67
2023-03-15T05:14:02.088Z,100046.27
2023-03-15T05:16:48.493Z,100049.43
2023-03-15T05:19:36.703Z,100048.53
2023-03-15T05:22:29.726Z,100048.02
2023-03-15T05:25:20.923Z,100051.16
2023-03-15T05:28:21.189Z,100057.10
2023-03-15T05:31:29.448Z,100060.88
2023-03-15T05:34:30.329Z,100066.04
2023-03-15T05:37:29.177Z,100073.38
2023-03-15T05:40:25.355Z,100085.27
2023-03-15T05:43:07.441Z,100086.19
2023-03-15T05:45:58.904Z,100088.73
2023-03-15T05:49:07.604Z,100088.92
2023-03-15T05:51:56.067Z,100089.55
2023-03-15T05:54:50.522Z,100093.86
2023-03-15T05:57:43.352Z,100102.93
2023-03-15T06:00:34.851Z,100109.64
2023-03-15T06:03:09.383Z,100120.45
2023-03-15T06:05:51.052Z,100121.95
2023-03-15T06:08:29.388Z,100133.08
2023-03-15T06:11:02.474Z,100136.23
2023-03-15T06:13:35.726Z,100134.79
2023-03-15T06:16:13.299Z,100138.36
2023-03-15T06:18:50.670Z,100144.61
2023-03-15T06:21:25.980Z,100146.23
2023-03-15T06:23:58.889Z,100114.44
2023-03-15T06:26:31.647Z,100149.80
2023-03-15T06:29:09.058Z,100157.82
2023-03-15T06:31:42.155Z,100159.94
2023-03-15T06:34:15.443Z,100163.64
2023-03-15T06:36:49.550Z,100154.10
2023-03-15T06:39:25.335Z,100177.08
2023-03-15T06:42:02.577Z,100181.40
2023-03-15T06:44:38.999Z,100189.23
2023-03-15T06:47:12.496Z,100192.11
2023-03-15T06:49:45.362Z,100205.16
2023-03-15T06:52:20.675Z,100210.56
2023-03-15T06:54:55.402Z,100216.95
2023-03-15T06:57:28.506Z,100227.63
2023-03-15T07:00:00.914Z,100235.59
2023-03-15T07:02:37.762Z,100238.03
2023-03-15T07:05:12.228Z,100237.52
2023-03-15T07:07:44.928Z,100238.58
2023-03-15T07:10:17.191Z,100242.26
2023-03-15T07:12:49.638Z,100252.20
2023-03-15T07:15:22.411Z,100250.95
2023-03-15T07:17:55.255Z,100251.20
2023-03-15T07:20:28.208Z,100255.70
2023-03-15T07:23:01.019Z,100264.58
2023-03-15T07:25:44.963Z,100267.88
2023-03-15T07:28:25.995Z,100268.52
2023-03-15T07:31:00.180Z,100270.36
2023-03-15T07:33:35.972Z,100274.56
2023-03-15T07:36:09.514Z,100277.21
2023-03-15T07:38:43.368Z,100277.61
2023-03-15T07:41:16.275Z,100258.66
2023-03-15T07:43:58.604Z,100269.23
2023-03-15T07:46:31.426Z,100276.91
2023-03-15T07:49:04.331Z,100266.34
2023-03-15T07:51:36.891Z,100278.59
2023-03-15T07:54:09.400Z,100274.65
2023-03-15T07:56:41.781Z,100283.20
2023-03-15T07:59:14.247Z,100285.87
2023-03-15T08:01:46.715Z,100293.27
2023-03-15T08:04:19.654Z,100295.73
2023-03-15T08:06:52.026Z,100305.02
2023-03-15T08:09:25.075Z,100282.75
2023-03-15T08:11:57.770Z,100296.98
2023-03-15T08:14:31.718Z,100297.86
2023-03-15T08:17:04.408Z,100289.56
2023-03-15T08:19:37.419Z,100305.27
2023-03-15T08:22:10.514Z,100303.52
2023-03-15T08:24:43.004Z,100315.36
2023-03-15T08:27:15.709Z,100309.42
2023-03-15T08:29:48.196Z,100317.03
2023-03-15T08:32:21.710Z,100318.95
2023-03-15T08:34:54.326Z,100317.57
2023-03-15T08:37:26.748Z,100327.91
2023-03-15T08:40:01.252Z,100336.28
2023-03-15T08:42:34.561Z,100332.98
2023-03-15T08:45:08.784Z,100310.77
2023-03-15T08:47:41.434Z,100334.07
2023-03-15T08:50:17.215Z,100331.94
2023-03-15T08:52:49.595Z,100329.94
2023-03-15T08:55:22.126Z,100339.07
2023-03-15T08:57:54.657Z,100344.77
2023-03-15T09:00:27.899Z,100350.65
2023-03-15T09:03:00.386Z,100357.43
2023-03-15T09:05:33.448Z,100365.98
2023-03-15T09:08:06.102Z,100365.71
2023-03-15T09:10:38.511Z,100367.92
2023-03-15T09:13:11.254Z,100369.50
2023-03-15T09:15:43.748Z,100372.65
2023-03-15T09:18:16.496Z,100374.37
2023-03-15T09:20:49.477Z,100375.61
2023-03-15T09:23:22.159Z,100377.70
2023-03-15T09:25:54.625Z,100376.17
2023-03-15T09:28:27.065Z,100380.44
2023-03-15T09:31:00.211Z,100379.67
2023-03-15T09:33:33.341Z,100379.58
2023-03-15T09:36:06.610Z,100380.48
2023-03-15T09:38:39.264Z,100386.71
2023-03-15T09:41:21.529Z,100391.80
2023-03-15T09:44:10.174Z,100397.09
2023-03-15T09:46:53.206Z,100397.75
2023-03-15T09:49:35.334Z,100402.08
2023-03-15T09:52:17.821Z,100405.06
2023-03-15T09:54:55.790Z,100399.91
2023-03-15T09:57:37.997Z,100401.27
2023-03-15T10:00:20.828Z,100402.27
2023-03-15T10:03:01.646Z,100397.72
2023-03-15T10:05:43.162Z,100398.91
2023-03-15T10:08:19.295Z,100380.02
2023-03-15T10:10:58.127Z,100391.62
2023-03-15T10:13:42.496Z,100391.13
2023-03-15T10:16:28.603Z,100397.24
2023-03-15T10:19:15.067Z,100399.63
2023-03-15T10:21:56.456Z,100397.39
2023-03-15T10:24:39.027Z,100400.84
2023-03-15T10:27:21.344Z,100403.85
2023-03-15T10:29:56.709Z,100404.80
2023-03-15T10:32:38.878Z,100402.18
2023-03-15T10:35:17.726Z,100399.75
2023-03-15T10:37:51.865Z,100396.19
2023-03-15T10:40:41.489Z,100400.13
2023-03-15T10:43:21.319Z,100405.27
2023-03-15T10:46:05.412Z,100410.27
2023-03-15T10:48:39.604Z,100409.41
2023-03-15T10:51:21.548Z,100412.98
2023-03-15T10:54:00.899Z,100408.93
2023-03-15T10:56:37.210Z,100415.34
2023-03-15T10:59:19.241Z,100410.71
2023-03-15T11:01:55.432Z,100413.36
2023-03-15T11:04:28.739Z,100413.06
2023-03-15T11:07:07.743Z,100417.40
2023-03-15T11:09:45.741Z,100420.13
2023-03-15T11:12:25.815Z,100418.25
2023-03-15T11:15:01.939Z,100431.70
2023-03-15T11:17:43.080Z,100432.62
2023-03-15T11:20:30.566Z,100433.59
2023-03-15T11:23:07.360Z,100429.08
2023-03-15T11:25:39.967Z,100424.70
2023-03-15T11:28:20.507Z,100423.16
2023-03-15T11:30:53.191Z,100424.91
2023-03-15T11:33:34.991Z,100421.58
2023-03-15T11:36:15.186Z,100426.46
2023-03-15T11:38:48.559Z,100436.12
2023-03-15T11:41:35.961Z,100429.96
2023-03-15T11:44:19.703Z,100434.37
2023-03-15T11:46:57.623Z,100426.55
2023-03-15T11:49:37.988Z,100442.56
2023-03-15T11:52:11.662Z,100444.56
2023-03-15T11:54:45.169Z,100442.52
2023-03-15T11:57:41.103Z,100438.80
2023-03-15T12:00:35.690Z,100440.52
2023-03-15T12:03:30.884Z,100436.68
2023-03-15T12:06:06.981Z,100436.67
2023-03-15T12:08:49.500Z,100440.96
2023-03-15T12:11:43.009Z,100449.31
2023-03-15T12:14:31.331Z,100461.89
2023-03-15T12:17:42.715Z,100457.35
2023-03-15T12:20:29.427Z,100439.09
2023-03-15T12:23:22.552Z,100449.14
2023-03-15T12:25:59.225Z,100451.27
2023-03-15T12:28:36.849Z,100449.20
2023-03-15T12:31:13.331Z,100446.77
2023-03-15T12:33:52.377Z,100441.84
2023-03-15T12:36:36.121Z,100433.84
2023-03-15T12:39:39.814Z,100412.66
2023-03-15T12:42:38.930Z,100440.34
2023-03-15T12:45:37.664Z,100436.56
2023-03-15T12:48:32.701Z,100441.63
2023-03-15T12:51:16.191Z,100442.78
2023-03-15T12:53:52.203Z,100450.02
2023-03-15T12:56:55.427Z,100453.15
2023-03-15T12:59:41.282Z,100454.52
2023-03-15T13:02:42.173Z,100452.67
2023-03-15T13:05:21.360Z,100453.97
2023-03-15T13:08:18.864Z,100460.45
2023-03-15T13:11:05.648Z,100470.95
2023-03-15T13:13:56.708Z,100485.83
2023-03-15T13:16:37.141Z,100498.48
2023-03-15T13:19:23.642Z,100496.44
2023-03-15T13:22:13.283Z,100491.66
2023-03-15T13:24:52.703Z,100477.73
2023-03-15T13:27:44.480Z,100477.61
2023-03-15T13:30:36.151Z,100482.41
2023-03-15T13:33:17.827Z,100481.54
2023-03-15T13:35:56.547Z,100480.50
2023-03-15T13:38:32.188Z,100482.61
2023-03-15T13:41:06.672Z,100483.62
2023-03-15T13:43:42.465Z,100480.67
2023-03-15T13:46:15.028Z,100482.52
2023-03-15T13:48:48.681Z,100478.85
2023-03-15T13:51:25.465Z,100485.77
2023-03-15T13:54:03.055Z,100487.20
2023-03-15T13:56:49.143Z,100491.88
2023-03-15T13:59:22.756Z,100511.77
2023-03-15T14:01:55.873Z,100517.33
2023-03-15T14:04:30.425Z,100526.35
2023-03-15T14:07:24.074Z,100527.95
2023-03-15T14:12:55.470Z,100536.88
2023-03-15T14:15:37.074Z,100541.41
2023-03-15T14:18:20.626Z,100528.86
2023-03-15T14:21:01.675Z,100529.80
2023-03-15T14:23:37.598Z,100546.86
2023-03-15T14:26:19.079Z,100547.30
2023-03-15T14:28:56.214Z,100546.32
2023-03-15T14:31:34.741Z,100550.45
2023-03-15T14:34:20.058Z,100546.48
2023-03-15T14:36:59.996Z,100549.19
2023-03-15T14:39:39.481Z,100546.37
2023-03-15T14:42:14.521Z,100536.48
2023-03-15T14:44:46.902Z,100543.31
2023-03-15T14:47:20.820Z,100548.07
2023-03-15T14:49:53.773Z,100547.98
2023-03-15T14:52:27.690Z,100547.94
2023-03-15T14:55:00.299Z,100551.47
2023-03-15T14:57:32.991Z,100550.69
2023-03-15T15:00:10.956Z,100556.05
2023-03-15T15:02:44.848Z,100554.86
2023-03-15T15:05:24.747Z,100552.48
2023-03-15T15:08:04.533Z,100555.47
2023-03-15T15:10:38.088Z,100555.65
2023-03-15T15:13:16.267Z,100556.66
2023-03-15T15:15:55.575Z,100557.98
2023-03-15T15:18:31.152Z,100557.20
2023-03-15T15:21:03.277Z,100562.47
2023-03-15T15:23:54.912Z,100560.91
2023-03-15T15:26:32.030Z,100571.29
2023-03-15T15:29:04.954Z,100571.20
2023-03-15T15:31:38.586Z,100573.23
2023-03-15T15:34:12.151Z,100575.08
2023-03-15T15:36:46.710Z,100576.13
2023-03-15T15:39:22.916Z,100578.59
2023-03-15T15:41:55.585Z,100580.10
2023-03-15T15:44:28.088Z,100583.98
2023-03-15T15:47:01.303Z,100581.46
2023-03-15T15:49:34.242Z,100582.00
2023-03-15T15:52:07.299Z,100585.58
2023-03-15T15:54:39.764Z,100575.02
2023-03-15T15:57:15.031Z,100589.27
2023-03-15T15:59:47.926Z,100590.16
2023-03-15T16:02:22.479Z,100593.79
2023-03-15T16:04:53.723Z,100593.26
2023-03-15T16:07:27.433Z,100597.00
2023-03-15T16:10:01.854Z,100597.73
2023-03-15T16:12:34.963Z,100602.46
2023-03-15T16:15:08.850Z,100604.44
2023-03-15T16:17:41.861Z,100605.23
2023-03-15T16:20:17.003Z,100612.33
2023-03-15T16:22:52.272Z,100618.33
2023-03-15T16:25:29.862Z,100617.89
2023-03-15T16:28:04.429Z,100628.10
2023-03-15T16:30:37.445Z,100611.70
2023-03-15T16:33:16.295Z,100631.98
2023-03-15T16:35:50.592Z,100632.66
2023-03-15T16:38:28.683Z,100636.52
2023-03-15T16:41:02.976Z,100641.36
2023-03-15T16:43:35.693Z,100628.83
2023-03-15T16:51:28.417Z,100649.09
2023-03-15T16:54:14.922Z,100655.84
2023-03-15T16:56:49.478Z,100658.98
2023-03-15T16:59:22.288Z,100663.90
2023-03-15T17:01:55.112Z,100657.02
2023-03-15T17:04:27.990Z,100672.04
2023-03-15T17:07:01.569Z,100679.11
2023-03-15T17:09:34.536Z,100683.80
2023-03-15T17:12:07.942Z,100684.88
2023-03-15T17:14:41.917Z,100676.90
2023-03-15T17:17:15.301Z,100693.98
2023-03-15T17:19:48.344Z,100697.00
2023-03-15T17:22:22.790Z,100694.70
2023-03-15T17:24:56.205Z,100705.64
2023-03-15T17:27:34.179Z,100711.48
2023-03-15T17:30:17.646Z,100707.63
2023-03-15T17:32:54.851Z,100713.17
2023-03-15T17:35:33.874Z,100716.48
2023-03-15T17:38:14.989Z,100703.95
2023-03-15T17:40:47.956Z,100715.10
2023-03-15T17:43:21.425Z,100720.55
2023-03-15T17:45:55.763Z,100725.26
2023-03-15T17:48:30.278Z,100726.32
2023-03-15T17:51:04.049Z,100729.36
2023-03-15T17:53:37.268Z,100732.77
2023-03-15T17:56:11.739Z,100730.87
2023-03-15T17:58:47.150Z,100737.69
2023-03-15T18:01:25.210Z,100737.60
2023-03-15T18:03:58.815Z,100737.45
2023-03-15T18:06:32.274Z,100739.89
2023-03-15T18:09:05.638Z,100741.61
2023-03-15T18:11:42.474Z,100745.13
2023-03-15T18:14:19.026Z,100741.54
2023-03-15T18:16:52.039Z,100740.75
2023-03-15T18:19:25.558Z,100738.75
2023-03-15T18:21:59.464Z,100740.39
2023-03-15T18:24:34.514Z,100749.63
2023-03-15T18:27:07.513Z,100749.00
2023-03-15T18:29:40.724Z,100748.16
2023-03-15T18:32:14.595Z,100753.14
2023-03-15T18:34:47.347Z,100758.59
2023-03-15T18:37:21.262Z,100764.74
2023-03-15T18:39:54.951Z,100768.88
2023-03-15T18:42:28.602Z,100770.86
2023-03-15T18:45:01.605Z,100771.55
2023-03-15T18:47:34.846Z,100772.48
2023-03-15T18:50:10.888Z,100768.45
2023-03-15T18:52:46.491Z,100772.39
2023-03-15T18:55:23.810Z,100776.41
2023-03-15T18:57:57.866Z,100762.42
2023-03-15T19:00:36.238Z,100781.56
2023-03-15T19:03:10.666Z,100777.52
2023-03-15T19:05:44.399Z,100767.34
2023-03-15T19:08:17.164Z,100785.36
2023-03-15T19:10:51.502Z,100789.84
2023-03-15T19:13:24.916Z,100798.98
2023-03-15T19:15:58.120Z,100806.30
2023-03-15T19:18:32.365Z,100806.62
2023-03-15T19:21:05.126Z,100809.95
2023-03-15T19:23:37.942Z,100798.84
2023-03-15T19:26:11.005Z,100808.73
2023-03-15T19:28:43.841Z,100809.74
2023-03-15T19:31:16.529Z,100815.89
2023-03-15T19:33:49.271Z,100817.67
2023-03-15T19:36:22.212Z,100809.98
2023-03-15T19:38:55.046Z,100810.28
2023-03-15T19:41:27.923Z,100822.20
2023-03-15T19:44:03.418Z,100826.68
2023-03-15T19:46:39.630Z,100832.82
2023-03-15T19:49:12.717Z,100837.16
2023-03-15T19:51:45.346Z,100841.59
2023-03-15T19:54:18.055Z,100827.21
2023-03-15T19:56:50.964Z,100845.13
2023-03-15T19:59:23.636Z,100842.69
2023-03-15T20:01:57.025Z,100847.02
2023-03-15T20:04:29.551Z,100848.48
2023-03-15T20:07:02.445Z,100852.65
2023-03-15T20:09:39.230Z,100849.45
2023-03-15T20:12:14.460Z,100850.42
2023-03-15T20:14:47.608Z,100856.09
2023-03-15T20:17:21.754Z,100863.63
2023-03-15T20:19:54.829Z,100865.66
2023-03-15T20:22:27.832Z,100870.30
2023-03-15T20:25:01.488Z,100867.27
2023-03-15T20:27:36.459Z,100871.30
2023-03-15T20:30:12.727Z,100872.48
2023-03-15T20:32:45.775Z,100872.05
2023-03-15T20:35:18.525Z,100873.07
2023-03-15T20:37:53.161Z,100877.08
2023-03-15T20:40:24.575Z,100877.04
2023-03-15T20:42:57.712Z,100878.08
2023-03-15T20:45:31.990Z,100880.23
2023-03-15T20:48:05.246Z,100884.66
2023-03-15T20:50:38.288Z,100874.63
2023-03-15T20:53:11.403Z,100884.27
2023-03-15T20:55:44.747Z,100888.73
2023-03-15T20:58:17.795Z,100887.37
2023-03-15T21:00:50.878Z,100893.11
2023-03-15T21:03:24.287Z,100892.04
2023-03-15T21:05:56.760Z,100895.45
2023-03-15T21:08:29.649Z,100897.88
2023-03-15T21:11:02.295Z,100897.94
2023-03-15T21:13:36.806Z,100902.36
2023-03-15T21:16:08.493Z,100901.28
2023-03-15T21:18:47.909Z,100904.23
2023-03-15T21:21:21.858Z,100909.39
2023-03-15T21:23:54.982Z,100913.42
2023-03-15T21:26:27.944Z,100912.91
2023-03-15T21:29:00.640Z,100915.88
2023-03-15T21:31:36.622Z,100915.50
2023-03-15T21:34:09.731Z,100920.83
2023-03-15T21:36:42.434Z,100919.56
2023-03-15T21:39:14.972Z,100920.96
2023-03-15T21:41:47.920Z,100925.48
2023-03-15T21:44:21.178Z,100934.27
2023-03-15T21:46:54.243Z,100930.95
2023-03-15T21:49:28.335Z,100936.23
2023-03-15T21:52:02.674Z,100935.17
2023-03-15T21:54:36.569Z,100934.80
2023-03-15T21:57:09.096Z,100939.33
2023-03-15T21:59:42.791Z,100941.02
2023-03-15T22:02:16.827Z,100942.17
2023-03-15T22:04:49.509Z,100944.50
2023-03-15T22:07:22.064Z,100948.52
2023-03-15T22:09:54.556Z,100948.39
2023-03-15T22:12:27.348Z,100951.80
2023-03-15T22:15:05.730Z,100953.00
2023-03-15T22:17:39.361Z,100951.21
2023-03-15T22:20:16.812Z,100950.73
2023-03-15T22:22:50.754Z,100950.11
2023-03-15T22:25:23.323Z,100949.27
2023-03-15T22:27:55.985Z,100944.94
2023-03-15T22:30:28.521Z,100951.55
2023-03-15T22:33:01.180Z,100950.29
2023-03-15T22:35:33.798Z,100946.05
2023-03-15T22:38:10.120Z,100950.96
2023-03-15T22:40:44.094Z,100954.41
2023-03-15T22:43:16.973Z,100953.60
2023-03-15T22:45:49.420Z,100954.16
2023-03-15T22:48:22.929Z,100953.48
2023-03-15T22:51:00.952Z,100951.95
2023-03-15T22:53:33.916Z,100950.92
2023-03-15T22:56:06.764Z,100949.96
2023-03-15T22:58:39.781Z,100952.65
2023-03-15T23:01:12.323Z,100952.88
2023-03-15T23:03:44.892Z,100939.13
2023-03-15T23:06:17.318Z,100953.91
2023-03-15T23:08:49.784Z,100958.36
2023-03-15T23:11:22.239Z,100961.23
2023-03-15T23:13:54.904Z,100964.16
2023-03-15T23:16:29.901Z,100963.16
2023-03-15T23:19:05.068Z,100963.45
2023-03-15T23:21:38.062Z,100954.44
2023-03-15T23:24:13.903Z,100969.61
2023-03-15T23:26:46.429Z,100969.42
2023-03-15T23:29:18.804Z,100972.91
2023-03-15T23:31:51.293Z,100973.13
2023-03-15T23:34:24.231Z,100976.02
2023-03-15T23:36:56.874Z,100983.90
2023-03-15T23:39:29.903Z,100979.05
2023-03-15T23:42:02.339Z,100985.63
2023-03-15T23:44:37.560Z,100991.04
2023-03-15T23:47:12.424Z,100991.02
2023-03-15T23:49:45.284Z,100986.17
2023-03-15T23:52:18.607Z,100994.09
2023-03-15T23:54:54.571Z,101001.05
2023-03-15T23:57:28.508Z,101004.61
